NORTHERN NASSAU  -  Coastal Flood Statement Coastal Flood Statement        SOUTHERN NASSAU  -  Coastal Flood Statement Coastal Flood Statement      

Active alerts

Northern Nassau
  Details for Northern Nassau Coastal Flood Statement
Southern Nassau
  Details for Southern Nassau Coastal Flood Statement


WXM80 ListenWXM80 Stop

You find our weather info also at:

UK Metoffice

WeatherCloud

Weather Underground

Northeastern Weather Network

AWEKAS

Citizen Weather Observer Program (CWOP)

HAMweather, WeatherForYou, PWS Weather


Weather Underground History page Text

Daily Summary for February 28, 2016 Units:  English    Metric   Both
« Previous Day
Next Day »
Daily Weekly Monthly Yearly Custom
  High: Low: Average:
Temperature: 60.9 °F 35.3 °F 46.8 °F
Dew Point: 39.0 °F 24.5 °F 32.1 °F
Humidity: 75 % 36 % 58 %
Wind Speed: 10.4 mph 0.8 mph 5.1 mph
Wind Gust: 19.6 mph - -
Wind:- - SSW
Pressure: 29.97 in 29.73 in -
Precipitation: 0.00 in    
Historical Graphs
 
 
Tabular Data for February 28, 2016
Time Temperature Dew Point Pressure Wind Wind Speed Wind Gust Humidity Rainfall Rate (Hourly)
00:05 37.2 °F 24.6 °F 29.95 in SSW 4.9 mph 4.9 mph 60 % 0.00 in
00:10 37.2 °F 24.6 °F 29.95 in SSW 5.3 mph 7.0 mph 60 % 0.00 in
00:15 37.2 °F 24.6 °F 29.95 in SW 3.1 mph 3.5 mph 60 % 0.00 in
00:20 37.1 °F 24.5 °F 29.95 in SW 4.5 mph 5.0 mph 60 % 0.00 in
00:25 37.1 °F 24.5 °F 29.95 in SSW 4.3 mph 7.0 mph 60 % 0.00 in
00:30 37.1 °F 24.9 °F 29.95 in SSW 4.5 mph 9.2 mph 61 % 0.00 in
00:35 37.0 °F 24.8 °F 29.95 in SW 6.3 mph 8.1 mph 61 % 0.00 in
00:40 37.0 °F 24.8 °F 29.94 in SW 4.1 mph 7.0 mph 61 % 0.00 in
00:45 37.1 °F 24.9 °F 29.94 in SW 0.8 mph 5.8 mph 61 % 0.00 in
00:50 37.1 °F 25.3 °F 29.94 in South 3.9 mph 6.9 mph 62 % 0.00 in
00:56 37.2 °F 25.0 °F 29.94 in SSW 3.7 mph 9.2 mph 61 % 0.00 in
01:01 37.3 °F 25.1 °F 29.93 in SW 2.2 mph 10.4 mph 61 % 0.00 in
01:06 37.4 °F 25.2 °F 29.93 in SW 8.2 mph 11.5 mph 61 % 0.00 in
01:11 37.6 °F 25.4 °F 29.93 in South 7.2 mph 10.4 mph 61 % 0.00 in
01:16 37.7 °F 25.1 °F 29.93 in SW 3.4 mph 6.0 mph 60 % 0.00 in
01:21 37.8 °F 25.1 °F 29.93 in SW 5.5 mph 9.2 mph 60 % 0.00 in
01:26 37.9 °F 25.2 °F 29.93 in SSW 6.2 mph 10.4 mph 60 % 0.00 in
01:31 38.0 °F 25.3 °F 29.93 in SSW 5.3 mph 9.2 mph 60 % 0.00 in
01:36 38.0 °F 25.3 °F 29.93 in SW 2.1 mph 6.9 mph 60 % 0.00 in
01:41 38.1 °F 25.4 °F 29.93 in SW 2.6 mph 6.9 mph 60 % 0.00 in
01:47 38.1 °F 25.4 °F 29.93 in WSW 3.8 mph 10.0 mph 60 % 0.00 in
01:52 38.1 °F 25.4 °F 29.93 in SW 7.7 mph 8.1 mph 60 % 0.00 in
01:57 38.1 °F 25.8 °F 29.93 in SW 4.9 mph 8.1 mph 61 % 0.00 in
02:02 38.1 °F 25.8 °F 29.93 in SW 4.7 mph 7.0 mph 61 % 0.00 in
02:07 38.1 °F 25.8 °F 29.93 in SW 5.5 mph 6.9 mph 61 % 0.00 in
02:12 38.0 °F 25.7 °F 29.92 in SW 7.4 mph 10.4 mph 61 % 0.00 in
02:17 37.9 °F 25.6 °F 29.92 in SSW 5.6 mph 6.9 mph 61 % 0.00 in
02:22 37.9 °F 25.6 °F 29.92 in WSW 7.3 mph 12.7 mph 61 % 0.00 in
02:27 37.8 °F 25.9 °F 29.92 in SW 3.7 mph 8.1 mph 62 % 0.00 in
02:32 37.7 °F 25.8 °F 29.92 in SW 4.8 mph 6.9 mph 62 % 0.00 in
02:38 37.6 °F 25.7 °F 29.91 in SW 6.9 mph 8.1 mph 62 % 0.00 in
02:43 37.5 °F 25.7 °F 29.91 in South 4.9 mph 8.1 mph 62 % 0.00 in
02:48 37.5 °F 26.0 °F 29.91 in SW 4.9 mph 10.0 mph 63 % 0.00 in
02:53 37.4 °F 25.9 °F 29.91 in SSW 1.8 mph 3.5 mph 63 % 0.00 in
02:58 37.3 °F 25.8 °F 29.92 in SW 5.4 mph 8.0 mph 63 % 0.00 in
03:03 37.3 °F 25.8 °F 29.91 in SW 2.4 mph 4.0 mph 63 % 0.00 in
03:08 37.2 °F 25.8 °F 29.91 in SW 4.2 mph 12.0 mph 63 % 0.00 in
03:13 37.2 °F 25.8 °F 29.91 in SW 3.1 mph 5.8 mph 63 % 0.00 in
03:18 37.2 °F 25.8 °F 29.91 in South 5.2 mph 6.0 mph 63 % 0.00 in
03:23 37.2 °F 25.8 °F 29.92 in SSW 3.2 mph 4.0 mph 63 % 0.00 in
03:29 37.1 °F 25.7 °F 29.92 in SSW 2.8 mph 6.9 mph 63 % 0.00 in
03:34 37.1 °F 26.0 °F 29.92 in SSW 3.1 mph 8.1 mph 64 % 0.00 in
03:39 37.0 °F 25.9 °F 29.92 in SSW 1.9 mph 6.9 mph 64 % 0.00 in
03:44 36.9 °F 25.9 °F 29.93 in SSW 3.3 mph 6.0 mph 64 % 0.00 in
03:49 36.8 °F 25.8 °F 29.93 in SSW 3.3 mph 4.6 mph 64 % 0.00 in
03:54 36.7 °F 26.0 °F 29.92 in West 4.0 mph 7.0 mph 65 % 0.00 in
03:59 36.5 °F 25.8 °F 29.92 in SSW 2.9 mph 4.0 mph 65 % 0.00 in
04:04 36.4 °F 25.7 °F 29.92 in SSW 1.9 mph 3.5 mph 65 % 0.00 in
04:09 36.3 °F 25.7 °F 29.92 in SW 1.1 mph 3.5 mph 65 % 0.00 in
04:14 36.2 °F 25.6 °F 29.92 in SW 2.9 mph 5.8 mph 65 % 0.00 in
04:20 36.2 °F 25.9 °F 29.92 in SSW 3.3 mph 5.8 mph 66 % 0.00 in
04:25 36.1 °F 25.8 °F 29.92 in SSW 2.2 mph 3.5 mph 66 % 0.00 in
04:30 36.1 °F 25.8 °F 29.92 in SSW 2.0 mph 4.6 mph 66 % 0.00 in
04:35 36.0 °F 25.7 °F 29.92 in SSW 3.0 mph 4.6 mph 66 % 0.00 in
04:40 36.0 °F 25.7 °F 29.92 in SSW 3.0 mph 5.8 mph 66 % 0.00 in
04:45 35.9 °F 25.6 °F 29.92 in SSW 2.9 mph 3.5 mph 66 % 0.00 in
04:50 35.9 °F 25.6 °F 29.92 in SSW 2.5 mph 4.6 mph 66 % 0.00 in
04:55 35.9 °F 26.0 °F 29.93 in SW 3.8 mph 5.0 mph 67 % 0.00 in
05:00 35.9 °F 26.0 °F 29.93 in SW 3.0 mph 4.6 mph 67 % 0.00 in
05:05 35.9 °F 26.0 °F 29.93 in SW 1.2 mph 3.5 mph 67 % 0.00 in
05:11 35.9 °F 26.0 °F 29.93 in SW 2.6 mph 3.5 mph 67 % 0.00 in
05:16 35.9 °F 26.0 °F 29.93 in SSW 1.8 mph 4.0 mph 67 % 0.00 in
05:21 35.8 °F 25.9 °F 29.93 in SSW 3.5 mph 5.8 mph 67 % 0.00 in
05:26 35.7 °F 25.8 °F 29.94 in SW 2.1 mph 3.5 mph 67 % 0.00 in
05:31 35.6 °F 25.7 °F 29.94 in SSW 3.4 mph 5.8 mph 67 % 0.00 in
05:36 35.6 °F 25.7 °F 29.94 in SSW 2.9 mph 5.0 mph 67 % 0.00 in
05:41 35.5 °F 26.0 °F 29.94 in SW 2.9 mph 4.6 mph 68 % 0.00 in
05:46 35.4 °F 25.9 °F 29.94 in SW 1.8 mph 3.5 mph 68 % 0.00 in
05:51 35.3 °F 25.8 °F 29.94 in WSW 4.2 mph 6.0 mph 68 % 0.00 in
05:56 35.3 °F 25.8 °F 29.95 in SSW 3.9 mph 6.0 mph 68 % 0.00 in
06:02 35.4 °F 25.9 °F 29.95 in SSW 6.6 mph 9.0 mph 68 % 0.00 in
06:07 35.4 °F 25.9 °F 29.95 in SSW 4.7 mph 5.8 mph 68 % 0.00 in
06:12 35.4 °F 26.2 °F 29.95 in South 4.6 mph 6.9 mph 69 % 0.00 in
06:17 35.5 °F 26.0 °F 29.95 in SSW 4.5 mph 6.9 mph 68 % 0.00 in
06:22 35.5 °F 26.3 °F 29.95 in SSW 3.2 mph 5.8 mph 69 % 0.00 in
06:27 35.5 °F 26.3 °F 29.95 in SW 1.4 mph 5.8 mph 69 % 0.00 in
06:32 35.5 °F 26.3 °F 29.95 in SW 4.7 mph 6.0 mph 69 % 0.00 in
06:37 35.5 °F 26.3 °F 29.95 in South 4.3 mph 5.8 mph 69 % 0.00 in
06:42 35.7 °F 26.5 °F 29.95 in SW 1.7 mph 9.2 mph 69 % 0.00 in
06:47 35.8 °F 26.6 °F 29.96 in SW 2.8 mph 4.6 mph 69 % 0.00 in
06:53 36.0 °F 26.8 °F 29.96 in SW 6.7 mph 9.2 mph 69 % 0.00 in
06:58 36.2 °F 27.0 °F 29.95 in SSW 6.9 mph 12.7 mph 69 % 0.00 in
07:03 36.5 °F 26.9 °F 29.95 in SSW 4.9 mph 7.0 mph 68 % 0.00 in
07:08 36.9 °F 27.3 °F 29.96 in SSW 5.0 mph 5.8 mph 68 % 0.00 in
07:13 37.3 °F 27.3 °F 29.96 in SSW 4.8 mph 9.2 mph 67 % 0.00 in
07:18 37.6 °F 27.6 °F 29.96 in SSW 4.9 mph 6.9 mph 67 % 0.00 in
07:23 38.0 °F 27.6 °F 29.96 in SSW 3.0 mph 5.8 mph 66 % 0.00 in
07:28 38.4 °F 28.0 °F 29.96 in SSW 5.0 mph 8.1 mph 66 % 0.00 in
07:33 38.8 °F 28.0 °F 29.96 in WSW 3.5 mph 9.2 mph 65 % 0.00 in
07:38 39.1 °F 27.9 °F 29.97 in SW 7.6 mph 8.1 mph 64 % 0.00 in
07:44 39.5 °F 28.3 °F 29.96 in SSW 8.2 mph 9.2 mph 64 % 0.00 in
07:49 40.0 °F 28.8 °F 29.96 in WSW 8.6 mph 13.8 mph 64 % 0.00 in
07:54 40.5 °F 28.9 °F 29.96 in SSW 4.0 mph 9.2 mph 63 % 0.00 in
07:59 41.0 °F 29.0 °F 29.97 in WSW 5.9 mph 16.0 mph 62 % 0.00 in
08:04 41.4 °F 28.9 °F 29.97 in SSW 8.5 mph 11.5 mph 61 % 0.00 in
08:09 41.7 °F 29.2 °F 29.96 in SSW 9.0 mph 12.7 mph 61 % 0.00 in
08:14 41.9 °F 29.4 °F 29.97 in SW 6.1 mph 11.5 mph 61 % 0.00 in
08:19 42.2 °F 29.3 °F 29.97 in SW 6.5 mph 10.4 mph 60 % 0.00 in
08:24 42.4 °F 29.5 °F 29.97 in South 6.3 mph 11.5 mph 60 % 0.00 in
08:29 42.6 °F 29.7 °F 29.97 in SSW 4.8 mph 8.1 mph 60 % 0.00 in
08:35 42.9 °F 30.0 °F 29.97 in SSW 3.9 mph 5.8 mph 60 % 0.00 in
08:40 43.3 °F 29.9 °F 29.96 in SW 1.9 mph 6.9 mph 59 % 0.00 in
08:45 43.7 °F 29.9 °F 29.96 in SSW 5.0 mph 8.1 mph 58 % 0.00 in
08:50 44.1 °F 30.3 °F 29.96 in SSW 6.9 mph 10.4 mph 58 % 0.00 in
08:55 44.5 °F 30.2 °F 29.96 in WSW 5.4 mph 8.1 mph 57 % 0.00 in
09:00 44.9 °F 31.0 °F 29.96 in SW 5.9 mph 10.4 mph 58 % 0.00 in
09:05 45.3 °F 31.0 °F 29.96 in SW 5.0 mph 8.1 mph 57 % 0.00 in
09:10 45.6 °F 30.3 °F 29.96 in SW 6.3 mph 10.4 mph 55 % 0.00 in
09:15 46.1 °F 30.8 °F 29.96 in SSW 3.3 mph 6.9 mph 55 % 0.00 in
09:20 46.6 °F 30.8 °F 29.96 in SW 4.9 mph 9.2 mph 54 % 0.00 in
09:26 47.1 °F 31.3 °F 29.96 in SW 7.3 mph 11.5 mph 54 % 0.00 in
09:31 47.6 °F 30.8 °F 29.96 in WSW 6.0 mph 10.0 mph 52 % 0.00 in
09:36 48.0 °F 31.2 °F 29.96 in SW 5.2 mph 6.9 mph 52 % 0.00 in
09:41 48.3 °F 31.0 °F 29.96 in SW 6.5 mph 10.4 mph 51 % 0.00 in
09:46 48.6 °F 31.3 °F 29.96 in WSW 4.7 mph 9.2 mph 51 % 0.00 in
09:51 49.0 °F 31.2 °F 29.95 in SW 8.4 mph 13.0 mph 50 % 0.00 in
09:56 49.1 °F 31.7 °F 29.95 in SSW 6.5 mph 10.0 mph 51 % 0.00 in
10:01 49.6 °F 31.2 °F 29.95 in SSW 8.8 mph 10.4 mph 49 % 0.00 in
10:11 50.1 °F 31.7 °F 29.95 in SW 7.4 mph 11.5 mph 49 % 0.00 in
10:17 50.5 °F 31.5 °F 29.95 in SW 6.6 mph 8.1 mph 48 % 0.00 in
10:22 50.9 °F 31.9 °F 29.95 in SW 5.6 mph 10.4 mph 48 % 0.00 in
10:27 51.3 °F 31.7 °F 29.94 in SSW 8.2 mph 12.7 mph 47 % 0.00 in
10:32 51.7 °F 32.6 °F 29.94 in SW 7.0 mph 11.5 mph 48 % 0.00 in
10:37 52.1 °F 31.9 °F 29.94 in SW 6.0 mph 8.1 mph 46 % 0.00 in
10:42 52.5 °F 32.3 °F 29.94 in SW 3.3 mph 6.9 mph 46 % 0.00 in
10:47 53.0 °F 32.8 °F 29.94 in SSW 2.5 mph 5.8 mph 46 % 0.00 in
10:52 53.6 °F 32.8 °F 29.94 in SSW 3.1 mph 10.4 mph 45 % 0.00 in
10:57 54.0 °F 32.6 °F 29.94 in WSW 5.3 mph 6.9 mph 44 % 0.00 in
11:02 54.4 °F 32.9 °F 29.93 in SSW 4.7 mph 6.9 mph 44 % 0.00 in
11:08 54.8 °F 32.7 °F 29.93 in South 5.5 mph 5.5 mph 43 % 0.00 in
11:13 55.0 °F 32.9 °F 29.93 in WSW 6.2 mph 11.5 mph 43 % 0.00 in
11:18 55.2 °F 32.5 °F 29.93 in SSW 8.8 mph 15.0 mph 42 % 0.00 in
11:23 55.2 °F 32.5 °F 29.92 in SSW 4.5 mph 8.1 mph 42 % 0.00 in
11:28 55.5 °F 33.3 °F 29.92 in SSW 1.6 mph 4.6 mph 43 % 0.00 in
11:33 55.6 °F 32.8 °F 29.92 in West 5.9 mph 11.5 mph 42 % 0.00 in
11:38 55.8 °F 33.0 °F 29.91 in SW 4.3 mph 7.0 mph 42 % 0.00 in
11:43 56.1 °F 33.3 °F 29.91 in WSW 4.9 mph 9.2 mph 42 % 0.00 in
11:48 56.3 °F 32.9 °F 29.91 in SSW 3.4 mph 8.1 mph 41 % 0.00 in
11:53 56.5 °F 32.4 °F 29.90 in SSW 4.3 mph 12.7 mph 40 % 0.00 in
11:59 56.6 °F 32.5 °F 29.90 in SW 5.0 mph 9.2 mph 40 % 0.00 in
12:04 56.6 °F 32.5 °F 29.89 in South 6.0 mph 9.2 mph 40 % 0.00 in
12:09 56.9 °F 32.8 °F 29.89 in SSW 5.8 mph 11.0 mph 40 % 0.00 in
12:14 57.1 °F 33.0 °F 29.88 in South 3.1 mph 6.0 mph 40 % 0.00 in
12:19 57.8 °F 34.2 °F 29.88 in West 8.6 mph 11.5 mph 41 % 0.00 in
12:24 57.8 °F 33.0 °F 29.89 in WSW 5.8 mph 11.5 mph 39 % 0.00 in
12:29 57.8 °F 33.0 °F 29.88 in WSW 8.3 mph 11.0 mph 39 % 0.00 in
12:34 57.7 °F 32.2 °F 29.88 in SW 4.9 mph 10.4 mph 38 % 0.00 in
12:39 57.9 °F 33.7 °F 29.87 in South 4.8 mph 10.4 mph 40 % 0.00 in
12:44 58.1 °F 32.6 °F 29.87 in South 7.1 mph 10.4 mph 38 % 0.00 in
12:50 58.2 °F 32.7 °F 29.86 in SSW 8.8 mph 13.8 mph 38 % 0.00 in
12:55 58.2 °F 33.3 °F 29.86 in SSW 4.3 mph 9.2 mph 39 % 0.00 in
13:00 58.4 °F 33.5 °F 29.86 in SSE 5.8 mph 13.8 mph 39 % 0.00 in
13:05 58.7 °F 33.8 °F 29.85 in SW 6.8 mph 13.0 mph 39 % 0.00 in
13:10 59.0 °F 34.7 °F 29.85 in SSW 5.3 mph 8.1 mph 40 % 0.00 in
13:15 59.0 °F 33.4 °F 29.85 in WSW 4.7 mph 9.2 mph 38 % 0.00 in
13:20 59.0 °F 33.4 °F 29.85 in South 5.3 mph 6.9 mph 38 % 0.00 in
13:25 59.1 °F 33.5 °F 29.85 in SSE 6.0 mph 13.8 mph 38 % 0.00 in
13:30 59.1 °F 34.1 °F 29.85 in SW 8.0 mph 12.0 mph 39 % 0.00 in
13:36 59.4 °F 33.8 °F 29.85 in West 9.9 mph 12.0 mph 38 % 0.00 in
13:41 59.7 °F 34.0 °F 29.84 in WSW 5.0 mph 11.5 mph 38 % 0.00 in
13:46 59.7 °F 34.0 °F 29.84 in WSW 8.2 mph 15.0 mph 38 % 0.00 in
13:51 59.8 °F 34.1 °F 29.84 in South 3.7 mph 7.0 mph 38 % 0.00 in
13:56 60.1 °F 33.7 °F 29.83 in SSW 8.8 mph 13.8 mph 37 % 0.00 in
14:01 60.4 °F 34.0 °F 29.83 in WNW 6.4 mph 15.0 mph 37 % 0.00 in
14:06 60.5 °F 33.4 °F 29.83 in WSW 8.0 mph 11.5 mph 36 % 0.00 in
14:16 60.5 °F 34.1 °F 29.82 in SSW 9.8 mph 18.4 mph 37 % 0.00 in
14:21 60.6 °F 34.2 °F 29.82 in SSE 7.8 mph 9.2 mph 37 % 0.00 in
14:26 60.8 °F 34.3 °F 29.82 in SW 6.1 mph 11.5 mph 37 % 0.00 in
14:31 60.9 °F 34.4 °F 29.82 in SW 10.0 mph 12.7 mph 37 % 0.00 in
14:36 60.8 °F 35.0 °F 29.82 in South 6.0 mph 11.5 mph 38 % 0.00 in
14:42 60.8 °F 35.0 °F 29.82 in SW 7.4 mph 13.8 mph 38 % 0.00 in
14:47 60.7 °F 35.6 °F 29.82 in SSW 7.7 mph 17.3 mph 39 % 0.00 in
14:52 60.4 °F 35.9 °F 29.82 in SSW 5.0 mph 13.0 mph 40 % 0.00 in
14:57 60.1 °F 34.4 °F 29.82 in SSW 10.4 mph 19.6 mph 38 % 0.00 in
15:02 59.8 °F 34.1 °F 29.82 in SW 7.7 mph 12.7 mph 38 % 0.00 in
15:07 59.6 °F 34.6 °F 29.82 in SW 8.8 mph 18.4 mph 39 % 0.00 in
15:12 59.4 °F 35.7 °F 29.81 in SSW 8.6 mph 15.0 mph 41 % 0.00 in
15:17 59.2 °F 36.7 °F 29.81 in SSW 6.2 mph 8.1 mph 43 % 0.00 in
15:22 59.1 °F 36.6 °F 29.81 in South 4.7 mph 8.0 mph 43 % 0.00 in
15:27 59.1 °F 36.6 °F 29.81 in SW 4.6 mph 9.0 mph 43 % 0.00 in
15:33 59.0 °F 37.1 °F 29.81 in SSW 5.8 mph 9.0 mph 44 % 0.00 in
15:38 58.7 °F 37.4 °F 29.80 in South 4.4 mph 10.0 mph 45 % 0.00 in
15:43 58.4 °F 37.7 °F 29.81 in SSW 6.3 mph 10.4 mph 46 % 0.00 in
15:48 58.1 °F 37.4 °F 29.80 in SSW 6.0 mph 8.1 mph 46 % 0.00 in
15:53 57.9 °F 37.2 °F 29.81 in SSW 6.9 mph 10.0 mph 46 % 0.00 in
15:58 57.7 °F 37.6 °F 29.81 in SSE 4.1 mph 8.1 mph 47 % 0.00 in
16:03 57.5 °F 36.9 °F 29.80 in SW 6.2 mph 9.2 mph 46 % 0.00 in
16:08 57.3 °F 37.2 °F 29.81 in SSW 3.8 mph 7.0 mph 47 % 0.00 in
16:13 57.2 °F 37.1 °F 29.80 in SSE 5.9 mph 8.1 mph 47 % 0.00 in
16:18 57.0 °F 37.0 °F 29.80 in WSW 4.7 mph 10.4 mph 47 % 0.00 in
16:24 56.9 °F 37.4 °F 29.80 in SSW 4.3 mph 6.9 mph 48 % 0.00 in
16:29 56.7 °F 37.2 °F 29.80 in SSW 6.6 mph 15.0 mph 48 % 0.00 in
16:34 56.6 °F 37.1 °F 29.80 in SSW 2.0 mph 5.0 mph 48 % 0.00 in
16:39 56.4 °F 37.5 °F 29.80 in South 3.2 mph 5.8 mph 49 % 0.00 in
16:44 56.2 °F 37.8 °F 29.79 in SW 5.1 mph 8.1 mph 50 % 0.00 in
16:49 56.0 °F 37.6 °F 29.80 in South 4.2 mph 6.9 mph 50 % 0.00 in
16:54 55.8 °F 37.4 °F 29.80 in SSW 1.6 mph 3.5 mph 50 % 0.00 in
16:59 55.5 °F 37.7 °F 29.80 in SSW 3.9 mph 5.8 mph 51 % 0.00 in
17:04 55.1 °F 38.3 °F 29.80 in South 4.3 mph 8.0 mph 53 % 0.00 in
17:09 54.7 °F 37.9 °F 29.80 in SSW 4.1 mph 7.0 mph 53 % 0.00 in
17:15 54.2 °F 37.9 °F 29.80 in South 2.6 mph 7.0 mph 54 % 0.00 in
17:20 53.8 °F 38.0 °F 29.80 in South 4.1 mph 5.8 mph 55 % 0.00 in
17:25 53.5 °F 37.7 °F 29.80 in South 5.3 mph 10.4 mph 55 % 0.00 in
17:30 53.1 °F 38.3 °F 29.80 in SSW 3.2 mph 6.9 mph 57 % 0.00 in
17:35 52.8 °F 38.0 °F 29.80 in SSW 2.2 mph 3.5 mph 57 % 0.00 in
17:40 52.5 °F 38.1 °F 29.80 in SSW 3.9 mph 7.0 mph 58 % 0.00 in
17:45 52.1 °F 38.2 °F 29.80 in SSW 4.1 mph 6.9 mph 59 % 0.00 in
17:50 51.7 °F 37.8 °F 29.80 in South 3.5 mph 5.8 mph 59 % 0.00 in
17:55 51.3 °F 37.9 °F 29.79 in South 4.2 mph 10.4 mph 60 % 0.00 in
18:00 50.9 °F 37.9 °F 29.79 in South 2.9 mph 5.8 mph 61 % 0.00 in
18:06 50.5 °F 38.0 °F 29.79 in South 3.4 mph 7.0 mph 62 % 0.00 in
18:11 50.1 °F 37.6 °F 29.79 in South 4.4 mph 10.4 mph 62 % 0.00 in
18:16 49.8 °F 37.7 °F 29.79 in South 5.5 mph 9.2 mph 63 % 0.00 in
18:21 49.6 °F 37.5 °F 29.79 in South 3.9 mph 6.0 mph 63 % 0.00 in
18:26 49.3 °F 37.2 °F 29.79 in South 3.4 mph 6.9 mph 63 % 0.00 in
18:31 49.1 °F 37.4 °F 29.80 in South 3.2 mph 5.8 mph 64 % 0.00 in
18:36 48.9 °F 37.3 °F 29.79 in SSW 6.3 mph 10.4 mph 64 % 0.00 in
18:41 48.6 °F 37.0 °F 29.79 in SSW 3.8 mph 9.2 mph 64 % 0.00 in
18:46 48.4 °F 37.2 °F 29.79 in SSW 4.6 mph 7.0 mph 65 % 0.00 in
18:51 48.3 °F 37.1 °F 29.79 in South 5.3 mph 8.1 mph 65 % 0.00 in
18:57 48.1 °F 37.3 °F 29.79 in South 6.2 mph 8.1 mph 66 % 0.00 in
19:02 47.9 °F 37.1 °F 29.79 in SSW 7.1 mph 11.5 mph 66 % 0.00 in
19:07 47.8 °F 37.4 °F 29.79 in SSE 3.7 mph 6.0 mph 67 % 0.00 in
19:12 47.6 °F 37.2 °F 29.78 in South 4.2 mph 6.9 mph 67 % 0.00 in
19:17 47.5 °F 37.1 °F 29.78 in South 4.6 mph 6.9 mph 67 % 0.00 in
19:22 47.4 °F 37.0 °F 29.78 in SSW 4.8 mph 8.0 mph 67 % 0.00 in
19:27 47.4 °F 37.0 °F 29.78 in South 4.7 mph 6.0 mph 67 % 0.00 in
19:32 47.4 °F 37.0 °F 29.78 in SSW 3.7 mph 8.1 mph 67 % 0.00 in
19:37 47.4 °F 37.0 °F 29.78 in South 4.3 mph 6.9 mph 67 % 0.00 in
19:42 47.4 °F 37.0 °F 29.78 in SW 5.6 mph 8.1 mph 67 % 0.00 in
19:53 47.5 °F 37.1 °F 29.78 in South 5.3 mph 6.9 mph 67 % 0.00 in
19:58 47.4 °F 37.0 °F 29.78 in South 5.4 mph 9.2 mph 67 % 0.00 in
20:03 47.4 °F 37.0 °F 29.78 in SSE 5.2 mph 8.1 mph 67 % 0.00 in
20:08 47.4 °F 37.4 °F 29.78 in SSW 5.3 mph 9.2 mph 68 % 0.00 in
20:13 47.3 °F 37.3 °F 29.78 in SSW 3.5 mph 6.0 mph 68 % 0.00 in
20:18 47.2 °F 37.5 °F 29.78 in SSE 3.5 mph 8.1 mph 69 % 0.00 in
20:23 47.0 °F 37.4 °F 29.78 in South 4.6 mph 11.5 mph 69 % 0.00 in
20:28 46.9 °F 37.3 °F 29.78 in SSW 6.6 mph 10.4 mph 69 % 0.00 in
20:33 46.8 °F 37.2 °F 29.78 in SSW 2.8 mph 9.2 mph 69 % 0.00 in
20:39 46.8 °F 37.2 °F 29.78 in SSW 4.0 mph 7.0 mph 69 % 0.00 in
20:49 46.6 °F 37.7 °F 29.79 in SSW 3.9 mph 9.2 mph 71 % 0.00 in
20:54 46.5 °F 37.6 °F 29.79 in South 5.1 mph 6.9 mph 71 % 0.00 in
20:59 46.4 °F 37.5 °F 29.79 in South 5.1 mph 7.0 mph 71 % 0.00 in
21:04 46.3 °F 37.8 °F 29.78 in SSW 4.9 mph 8.1 mph 72 % 0.00 in
21:09 46.2 °F 37.7 °F 29.78 in SSW 4.1 mph 6.9 mph 72 % 0.00 in
21:14 46.1 °F 37.6 °F 29.78 in SSW 3.6 mph 6.0 mph 72 % 0.00 in
21:24 46.2 °F 37.7 °F 29.78 in SSW 3.7 mph 6.9 mph 72 % 0.00 in
21:35 46.2 °F 37.7 °F 29.78 in SSW 3.0 mph 6.9 mph 72 % 0.00 in
21:40 46.2 °F 37.3 °F 29.78 in South 2.1 mph 6.0 mph 71 % 0.00 in
21:45 46.3 °F 37.4 °F 29.77 in South 4.8 mph 10.4 mph 71 % 0.00 in
21:50 46.4 °F 37.5 °F 29.77 in South 4.7 mph 6.9 mph 71 % 0.00 in
21:55 46.6 °F 37.3 °F 29.77 in SW 7.5 mph 12.7 mph 70 % 0.00 in
22:00 47.0 °F 37.4 °F 29.77 in SSW 6.8 mph 18.4 mph 69 % 0.00 in
22:05 47.2 °F 37.5 °F 29.76 in SSW 9.8 mph 15.0 mph 69 % 0.00 in
22:10 47.6 °F 37.6 °F 29.75 in SW 5.6 mph 11.5 mph 68 % 0.00 in
22:15 47.8 °F 37.4 °F 29.75 in SSW 8.2 mph 13.8 mph 67 % 0.00 in
22:21 48.1 °F 37.7 °F 29.75 in SW 7.6 mph 16.1 mph 67 % 0.00 in
22:26 48.3 °F 37.5 °F 29.75 in SSW 8.1 mph 11.5 mph 66 % 0.00 in
22:31 48.5 °F 37.7 °F 29.75 in SW 9.9 mph 16.1 mph 66 % 0.00 in
22:36 48.5 °F 37.7 °F 29.75 in SSW 7.9 mph 12.7 mph 66 % 0.00 in
22:46 48.6 °F 37.7 °F 29.75 in South 7.9 mph 11.5 mph 66 % 0.00 in
22:51 48.5 °F 38.0 °F 29.75 in South 7.6 mph 12.7 mph 67 % 0.00 in
22:56 48.4 °F 37.9 °F 29.74 in SW 7.2 mph 11.5 mph 67 % 0.00 in
23:01 48.2 °F 38.1 °F 29.74 in SSW 7.4 mph 10.4 mph 68 % 0.00 in
23:06 48.1 °F 38.0 °F 29.74 in SSW 6.7 mph 15.0 mph 68 % 0.00 in
23:12 47.9 °F 38.2 °F 29.74 in SSW 7.5 mph 12.0 mph 69 % 0.00 in
23:22 47.4 °F 38.5 °F 29.74 in SSW 5.1 mph 8.1 mph 71 % 0.00 in
23:27 47.1 °F 38.5 °F 29.74 in SSW 4.4 mph 7.0 mph 72 % 0.00 in
23:32 46.9 °F 38.7 °F 29.73 in South 9.3 mph 13.8 mph 73 % 0.00 in
23:37 46.7 °F 38.9 °F 29.73 in SSW 8.1 mph 11.5 mph 74 % 0.00 in
23:42 46.6 °F 38.8 °F 29.73 in SSW 6.3 mph 10.0 mph 74 % 0.00 in
23:47 46.5 °F 38.7 °F 29.73 in SSW 5.6 mph 10.4 mph 74 % 0.00 in
23:52 46.5 °F 39.0 °F 29.73 in SSW 5.8 mph 7.0 mph 75 % 0.00 in
23:57 46.3 °F 38.8 °F 29.73 in SSW 3.3 mph 11.5 mph 75 % 0.00 in
Crab Meadow Weather
Compliments of Weather Underground - 3 mb

Script developed by  Jim McMurry - jmcmurry@mwt.net Adapted for the template by  Wim van der Kuil - Leuven-Template.eu

Weather Terms: Ice Storm Warning - Accumulations of 1/4 inch or more of freezing rain.